Time;durP1;ratioP1;P1;durP2;ratioP2;P2;SDS_P1;SDS_P2;PMS_P1;PMS_P2;Temp;Humidity;BMP_temperature;BMP_pressure;BME280_temperature;BME280_humidity;BME280_pressure;Samples;Min_cycle;Max_cycle;Signal;HPM_P1;HPM_P2
2023/07/23 00:01:13;;;;;;;7.33;3.40;;;19.20;93.20;;;;;;5028525;28;20175;-66
2023/07/23 00:03:38;;;;;;;8.53;4.10;;;19.00;93.40;;;;;;5032412;28;20110;-66
2023/07/23 00:06:04;;;;;;;8.00;3.67;;;19.20;92.70;;;;;;5032272;28;20052;-67
2023/07/23 00:08:30;;;;;;;4.93;3.50;;;19.20;92.40;;;;;;5027180;28;20024;-66
2023/07/23 00:10:58;;;;;;;5.50;3.17;;;19.00;92.90;;;;;;5031483;28;20464;-67
2023/07/23 00:13:27;;;;;;;5.03;3.30;;;19.00;92.90;;;;;;5029268;28;20053;-67
2023/07/23 00:15:53;;;;;;;4.55;2.83;;;18.70;93.10;;;;;;5029456;28;20044;-67
2023/07/23 00:18:18;;;;;;;10.57;3.57;;;18.80;93.50;;;;;;5030849;28;20026;-66
2023/07/23 00:20:44;;;;;;;7.67;3.90;;;18.70;93.70;;;;;;5030584;28;20029;-67
2023/07/23 00:23:09;;;;;;;9.90;4.03;;;18.60;94.10;;;;;;5027161;28;20030;-67
2023/07/23 00:25:35;;;;;;;8.87;3.73;;;18.60;94.10;;;;;;5025901;28;20559;-67
2023/07/23 00:28:01;;;;;;;6.77;3.73;;;18.40;94.50;;;;;;5026595;28;20025;-66
2023/07/23 00:30:26;;;;;;;6.70;3.43;;;18.70;94.40;;;;;;5028032;28;20032;-66
2023/07/23 00:32:52;;;;;;;5.93;3.13;;;18.60;94.90;;;;;;5026630;28;20171;-66
2023/07/23 00:35:19;;;;;;;4.63;3.03;;;18.50;95.00;;;;;;5027325;28;20375;-68
2023/07/23 00:37:45;;;;;;;5.93;3.38;;;18.50;95.50;;;;;;5032481;28;20033;-66
2023/07/23 00:40:11;;;;;;;10.23;3.43;;;18.40;96.20;;;;;;5029328;28;20037;-68
2023/07/23 00:42:37;;;;;;;;;;;18.30;96.30;;;;;;5029658;28;20059;-67
2023/07/23 00:45:03;;;;;;;5.25;3.28;;;18.40;96.80;;;;;;5029750;28;20377;-68
2023/07/23 00:47:28;;;;;;;8.27;3.63;;;18.20;97.40;;;;;;5033947;28;20044;-67
2023/07/23 00:49:55;;;;;;;6.57;3.50;;;18.20;97.50;;;;;;5024121;28;20034;-69
2023/07/23 00:52:20;;;;;;;6.65;3.88;;;18.10;97.70;;;;;;5031938;28;20036;-68
2023/07/23 00:54:46;;;;;;;6.32;3.67;;;18.10;98.10;;;;;;5031605;28;20034;-66
2023/07/23 00:57:13;;;;;;;7.70;4.00;;;18.10;98.10;;;;;;5030964;28;20419;-68
2023/07/23 00:59:38;;;;;;;5.93;3.55;;;18.00;97.20;;;;;;5027871;28;20116;-66
2023/07/23 01:02:04;;;;;;;8.97;3.33;;;18.10;96.90;;;;;;5027260;28;20976;-66
2023/07/23 01:04:32;;;;;;;6.22;2.92;;;18.00;97.00;;;;;;5032189;28;20123;-66
2023/07/23 01:07:00;;;;;;;7.05;3.53;;;17.90;96.60;;;;;;5038125;28;20045;-66
2023/07/23 01:09:27;;;;;;;7.05;3.45;;;17.90;97.00;;;;;;5032206;28;20056;-66
2023/07/23 01:11:52;;;;;;;;;;;18.00;95.90;;;;;;5029660;28;20060;-65
2023/07/23 01:14:18;;;;;;;7.80;3.63;;;17.90;96.00;;;;;;5029891;28;20429;-67
2023/07/23 01:16:44;;;;;;;5.23;3.47;;;17.90;96.40;;;;;;5029988;28;20393;-66
2023/07/23 01:19:12;;;;;;;6.95;4.00;;;17.90;96.20;;;;;;5025063;28;20065;-67
2023/07/23 01:21:38;;;;;;;8.63;3.78;;;17.80;96.30;;;;;;5028559;28;20037;-66
2023/07/23 01:24:03;;;;;;;7.60;3.50;;;17.80;96.30;;;;;;5030616;28;20036;-66
2023/07/23 01:26:29;;;;;;;7.40;4.15;;;17.90;96.00;;;;;;5026525;28;20719;-67
2023/07/23 01:28:55;;;;;;;5.87;3.50;;;17.70;96.40;;;;;;5028006;28;20033;-66
2023/07/23 01:31:20;;;;;;;7.07;3.93;;;17.70;96.40;;;;;;5033028;28;20040;-66
2023/07/23 01:33:46;;;;;;;7.77;3.57;;;17.60;96.80;;;;;;5030021;28;20025;-66
2023/07/23 01:36:14;;;;;;;6.57;3.73;;;17.60;97.10;;;;;;5027489;28;20065;-68
2023/07/23 01:38:39;;;;;;;8.40;3.50;;;17.80;96.60;;;;;;5027829;28;20167;-65
2023/07/23 01:41:05;;;;;;;9.83;3.30;;;17.70;97.00;;;;;;5027400;28;20127;-67
2023/07/23 01:43:31;;;;;;;7.23;3.43;;;17.70;96.50;;;;;;5029198;28;20291;-66
2023/07/23 01:45:57;;;;;;;7.78;3.83;;;17.70;96.40;;;;;;5025581;28;20313;-66
2023/07/23 01:48:23;;;;;;;5.63;3.30;;;17.70;96.10;;;;;;5028862;28;20036;-66
2023/07/23 01:50:49;;;;;;;4.97;3.10;;;17.80;95.90;;;;;;5030271;28;20124;-69
2023/07/23 01:53:15;;;;;;;5.28;3.15;;;17.70;96.20;;;;;;5026238;28;20082;-66
2023/07/23 01:55:41;;;;;;;4.38;2.78;;;17.60;96.90;;;;;;5019392;28;20096;-66
2023/07/23 01:58:06;;;;;;;6.50;3.60;;;17.70;96.30;;;;;;5034273;28;20036;-68
2023/07/23 02:00:32;;;;;;;7.17;3.63;;;17.60;96.30;;;;;;5031170;28;20438;-66
2023/07/23 02:02:58;;;;;;;5.93;3.43;;;17.50;97.10;;;;;;5047471;28;20041;-66
2023/07/23 02:05:24;;;;;;;5.93;3.50;;;17.50;97.30;;;;;;5024243;28;20355;-66
2023/07/23 02:07:49;;;;;;;7.93;3.55;;;17.50;97.00;;;;;;5024303;28;20045;-66
2023/07/23 02:10:18;;;;;;;4.83;3.03;;;17.50;96.80;;;;;;5028830;28;20394;-66
2023/07/23 02:12:43;;;;;;;7.53;3.30;;;17.60;96.50;;;;;;5028358;28;20044;-66
2023/07/23 02:15:09;;;;;;;5.73;2.90;;;17.60;96.40;;;;;;5022687;28;20400;-66
2023/07/23 02:17:35;;;;;;;4.73;2.97;;;17.70;96.30;;;;;;5022858;28;20041;-67
2023/07/23 02:20:01;;;;;;;5.83;3.37;;;17.60;96.70;;;;;;5026890;28;20290;-67
2023/07/23 02:22:26;;;;;;;5.23;2.90;;;17.60;97.10;;;;;;5028239;28;20061;-66
2023/07/23 02:24:52;;;;;;;7.77;3.37;;;17.40;97.40;;;;;;5022754;28;20029;-65
2023/07/23 02:27:18;;;;;;;10.73;2.60;;;17.40;97.70;;;;;;5025664;28;20052;-66
2023/07/23 02:29:44;;;;;;;6.50;3.13;;;17.50;97.20;;;;;;5019376;28;20122;-67
2023/07/23 02:32:10;;;;;;;6.00;3.43;;;17.30;97.60;;;;;;5026958;28;20040;-66
2023/07/23 02:34:36;;;;;;;;;;;17.30;98.20;;;;;;5025589;28;20025;-66
2023/07/23 02:37:04;;;;;;;4.88;2.85;;;17.30;98.10;;;;;;5021320;28;19916;-66
2023/07/23 02:39:30;;;;;;;9.88;3.67;;;17.40;98.10;;;;;;5026076;28;20030;-66
2023/07/23 02:41:56;;;;;;;5.03;2.92;;;17.40;97.90;;;;;;5029965;28;20034;-67
2023/07/23 02:44:21;;;;;;;6.47;3.07;;;17.30;98.20;;;;;;5021649;28;20115;-68
2023/07/23 02:46:47;;;;;;;4.33;2.60;;;17.20;98.90;;;;;;5026521;28;20758;-68
2023/07/23 02:49:13;;;;;;;7.30;3.13;;;17.10;99.10;;;;;;5021816;28;20112;-67
2023/07/23 02:51:38;;;;;;;4.90;3.23;;;17.20;99.20;;;;;;5019789;28;20443;-66
2023/07/23 02:54:04;;;;;;;4.47;2.80;;;17.20;98.70;;;;;;5021811;28;20084;-66
2023/07/23 02:56:29;;;;;;;4.37;2.97;;;17.10;99.10;;;;;;5026589;28;20033;-66
2023/07/23 02:58:55;;;;;;;7.50;3.27;;;17.00;99.50;;;;;;5031070;28;20091;-67
2023/07/23 03:01:20;;;;;;;4.20;2.80;;;17.10;99.50;;;;;;5026215;28;20030;-66
2023/07/23 03:03:47;;;;;;;5.03;2.83;;;17.00;99.70;;;;;;5028959;28;20091;-66
2023/07/23 03:06:13;;;;;;;8.45;3.10;;;17.00;99.60;;;;;;5028497;28;20054;-66
2023/07/23 03:08:39;;;;;;;;;;;17.00;99.60;;;;;;5026059;28;20034;-66
2023/07/23 03:11:06;;;;;;;5.60;3.33;;;17.00;99.70;;;;;;5024268;28;19918;-66
2023/07/23 03:13:31;;;;;;;4.32;2.97;;;17.10;99.60;;;;;;5020405;28;20033;-66
2023/07/23 03:15:57;;;;;;;5.50;3.27;;;17.10;99.60;;;;;;5026129;28;20025;-66
2023/07/23 03:18:22;;;;;;;10.40;3.37;;;17.00;99.90;;;;;;5022679;28;20533;-67
2023/07/23 03:20:48;;;;;;;6.00;3.20;;;17.20;99.80;;;;;;5028769;28;20041;-67
2023/07/23 03:23:15;;;;;;;4.70;3.10;;;17.30;99.30;;;;;;5033619;28;20059;-68
2023/07/23 03:25:40;;;;;;;;;;;17.30;99.10;;;;;;5027158;28;20072;-67
2023/07/23 03:28:06;;;;;;;4.95;3.38;;;17.20;99.40;;;;;;5029181;28;19999;-67
2023/07/23 03:30:31;;;;;;;6.60;3.67;;;17.30;99.10;;;;;;5031272;28;20393;-68
2023/07/23 03:32:57;;;;;;;4.10;2.70;;;17.10;99.50;;;;;;5029222;28;20564;-67
2023/07/23 03:35:23;;;;;;;4.88;3.08;;;17.00;99.90;;;;;;5028234;28;20026;-67
2023/07/23 03:37:48;;;;;;;3.93;2.70;;;17.10;99.90;;;;;;5029543;28;20158;-67
2023/07/23 03:40:14;;;;;;;7.23;3.20;;;17.00;99.90;;;;;;5029791;28;20155;-69
2023/07/23 03:42:40;;;;;;;4.23;2.57;;;17.00;99.90;;;;;;5029874;28;20041;-69
2023/07/23 03:45:06;;;;;;;9.55;3.38;;;17.00;99.90;;;;;;5023650;28;20042;-70
2023/07/23 03:47:32;;;;;;;4.50;2.92;;;17.00;99.90;;;;;;5030996;28;20025;-67
2023/07/23 03:49:59;;;;;;;4.23;2.93;;;17.10;99.90;;;;;;5028534;28;20040;-67
2023/07/23 03:52:25;;;;;;;7.57;2.90;;;17.10;99.90;;;;;;5027770;28;20033;-69
2023/07/23 03:54:51;;;;;;;4.33;2.97;;;17.10;99.90;;;;;;5030322;28;20401;-67
2023/07/23 03:57:16;;;;;;;5.93;3.10;;;17.10;99.90;;;;;;5025126;28;20029;-68
2023/07/23 03:59:45;;;;;;;6.20;2.93;;;17.20;99.90;;;;;;5037119;28;20132;-68
2023/07/23 04:02:11;;;;;;;8.07;3.60;;;17.30;99.90;;;;;;5030923;28;20029;-69
2023/07/23 04:04:38;;;;;;;6.80;2.97;;;17.20;99.90;;;;;;5025876;28;20021;-68
2023/07/23 04:07:05;;;;;;;3.70;2.60;;;17.10;99.90;;;;;;5025202;28;20526;-67
2023/07/23 04:09:30;;;;;;;5.45;2.92;;;17.10;99.90;;;;;;5028333;28;20041;-70
2023/07/23 04:11:56;;;;;;;6.23;3.43;;;17.00;99.90;;;;;;5031931;28;20056;-67
2023/07/23 04:14:23;;;;;;;8.27;3.03;;;16.90;99.90;;;;;;5027907;28;20120;-67
2023/07/23 04:16:48;;;;;;;4.65;3.10;;;16.90;99.90;;;;;;5027525;28;20060;-68
2023/07/23 04:19:14;;;;;;;7.57;2.97;;;16.90;99.90;;;;;;5032891;28;20021;-69
2023/07/23 04:21:40;;;;;;;5.20;3.47;;;16.80;99.90;;;;;;5032152;28;20292;-68
2023/07/23 04:24:06;;;;;;;5.27;3.07;;;16.80;99.90;;;;;;5028778;28;20030;-69
2023/07/23 04:26:31;;;;;;;7.03;3.00;;;16.90;99.90;;;;;;5026738;28;20523;-67
2023/07/23 04:28:58;;;;;;;4.20;3.00;;;16.90;99.90;;;;;;5028567;28;20100;-68
2023/07/23 04:31:24;;;;;;;6.57;3.53;;;17.00;99.90;;;;;;5029271;28;20029;-68
2023/07/23 04:33:50;;;;;;;6.13;3.22;;;17.20;99.90;;;;;;5023764;28;20045;-68
2023/07/23 04:36:15;;;;;;;3.57;2.83;;;17.10;99.90;;;;;;5029689;28;20026;-68
2023/07/23 04:38:42;;;;;;;6.03;3.37;;;17.10;99.90;;;;;;5032284;28;20284;-69
2023/07/23 04:41:12;;;;;;;5.85;3.00;;;17.10;99.90;;;;;;5029125;28;20033;-68
2023/07/23 04:43:40;;;;;;;5.93;2.75;;;17.40;99.90;;;;;;5027647;28;20041;-68
2023/07/23 04:46:06;;;;;;;4.60;3.13;;;17.20;99.90;;;;;;5030042;28;20041;-68
2023/07/23 04:48:33;;;;;;;5.60;3.07;;;17.20;99.90;;;;;;5023216;28;20028;-67
2023/07/23 04:51:00;;;;;;;5.53;2.75;;;17.40;99.90;;;;;;5029304;28;20037;-68
2023/07/23 04:53:26;;;;;;;5.82;3.00;;;17.30;99.90;;;;;;5028456;28;20091;-68
2023/07/23 04:55:53;;;;;;;6.45;3.05;;;17.20;99.90;;;;;;5024604;28;20080;-68
2023/07/23 04:58:20;;;;;;;6.43;3.22;;;17.40;99.90;;;;;;5033333;28;20030;-67
2023/07/23 05:00:45;;;;;;;8.18;3.50;;;17.40;99.90;;;;;;5028729;28;20033;-68
2023/07/23 05:03:11;;;;;;;4.63;3.13;;;17.40;99.90;;;;;;5032464;28;20428;-67
2023/07/23 05:05:45;;;;;;;12.70;3.20;;;17.40;99.90;;;;;;5029677;28;20041;-68
2023/07/23 05:08:11;;;;;;;5.32;3.47;;;17.50;99.90;;;;;;5022587;28;20037;-67
2023/07/23 05:10:37;;;;;;;6.83;3.63;;;17.60;99.90;;;;;;5028374;28;20037;-67
2023/07/23 05:13:03;;;;;;;4.63;3.30;;;17.90;99.50;;;;;;5027116;28;20389;-67
2023/07/23 05:15:29;;;;;;;5.03;3.03;;;18.00;99.60;;;;;;5024823;28;20121;-68
2023/07/23 05:17:54;;;;;;;4.80;3.25;;;18.00;99.40;;;;;;5028326;28;20144;-68
2023/07/23 05:20:20;;;;;;;4.10;2.77;;;18.10;99.60;;;;;;5030481;28;20053;-68
2023/07/23 05:22:46;;;;;;;5.10;3.30;;;18.20;98.50;;;;;;5028769;28;20845;-70
2023/07/23 05:25:12;;;;;;;6.27;3.27;;;18.00;99.30;;;;;;5029234;28;20033;-68
2023/07/23 05:27:38;;;;;;;5.63;3.03;;;18.10;99.20;;;;;;5027963;28;20497;-68
2023/07/23 05:30:04;;;;;;;8.10;3.20;;;18.20;97.80;;;;;;5025882;28;20366;-68
2023/07/23 05:32:31;;;;;;;4.78;3.00;;;18.20;98.50;;;;;;5028211;28;20492;-68
2023/07/23 05:34:56;;;;;;;6.50;3.05;;;18.50;98.50;;;;;;5022501;28;20113;-68
2023/07/23 05:37:23;;;;;;;3.75;2.88;;;18.80;98.60;;;;;;5061443;28;20163;-67
2023/07/23 05:39:49;;;;;;;5.57;2.72;;;19.20;98.40;;;;;;5025918;28;20048;-68
2023/07/23 05:42:15;;;;;;;5.07;3.40;;;19.50;96.10;;;;;;5029205;28;20025;-69
2023/07/23 05:44:40;;;;;;;7.13;3.30;;;20.20;94.20;;;;;;5028040;28;20291;-67
2023/07/23 05:47:07;;;;;;;5.67;2.43;;;20.90;92.70;;;;;;5024504;28;20084;-67
2023/07/23 05:49:32;;;;;;;10.30;2.85;;;20.60;92.40;;;;;;5022748;28;20033;-69
2023/07/23 05:51:59;;;;;;;4.17;2.97;;;19.80;93.60;;;;;;5026382;28;20076;-67
2023/07/23 05:54:25;;;;;;;5.55;3.22;;;19.40;95.00;;;;;;5023506;28;20017;-67
2023/07/23 05:56:51;;;;;;;5.80;2.53;;;19.40;95.10;;;;;;5023351;28;20172;-67
2023/07/23 05:59:16;;;;;;;6.70;2.60;;;19.50;95.90;;;;;;5026719;28;20056;-68
2023/07/23 06:01:42;;;;;;;6.93;2.70;;;19.70;95.40;;;;;;5028135;28;20049;-67
2023/07/23 06:04:08;;;;;;;4.93;3.13;;;19.80;96.00;;;;;;5028938;28;20018;-68
2023/07/23 06:06:34;;;;;;;6.15;2.95;;;20.80;94.50;;;;;;5021099;28;20456;-70
2023/07/23 06:09:00;;;;;;;5.35;3.22;;;22.90;91.60;;;;;;5021157;28;20034;-69
2023/07/23 06:11:26;;;;;;;3.45;2.53;;;23.30;88.80;;;;;;5029028;28;20037;-67
2023/07/23 06:13:51;;;;;;;5.13;2.92;;;21.90;91.00;;;;;;5031470;28;20544;-67
2023/07/23 06:16:17;;;;;;;8.67;2.87;;;23.50;90.00;;;;;;5028880;28;20037;-68
2023/07/23 06:18:43;;;;;;;6.28;2.28;;;25.00;85.70;;;;;;5026510;28;20120;-68
2023/07/23 06:21:09;;;;;;;6.05;2.80;;;23.90;86.90;;;;;;5023111;28;20549;-67
2023/07/23 06:23:35;;;;;;;7.60;2.57;;;23.00;89.70;;;;;;5026649;28;20033;-68
2023/07/23 06:26:00;;;;;;;3.03;2.65;;;22.60;90.90;;;;;;5026260;28;20497;-68
2023/07/23 06:28:26;;;;;;;5.20;2.10;;;22.20;90.00;;;;;;5025302;28;20510;-69
2023/07/23 06:30:53;;;;;;;4.93;3.13;;;22.20;91.20;;;;;;5020987;28;20076;-70
2023/07/23 06:33:19;;;;;;;7.88;3.60;;;22.30;91.20;;;;;;5018887;28;20028;-68
2023/07/23 06:35:45;;;;;;;5.55;3.88;;;22.70;90.80;;;;;;5024747;28;20033;-68
2023/07/23 06:38:11;;;;;;;5.28;3.63;;;22.60;90.40;;;;;;5029454;28;20049;-69
2023/07/23 06:40:37;;;;;;;5.38;3.50;;;22.50;90.80;;;;;;5027255;28;20134;-70
2023/07/23 06:43:02;;;;;;;6.03;3.93;;;22.50;91.00;;;;;;5023571;28;20033;-68
2023/07/23 06:45:28;;;;;;;6.93;3.33;;;22.40;91.70;;;;;;5027172;28;20060;-69
2023/07/23 06:47:55;;;;;;;8.18;4.00;;;22.30;92.00;;;;;;5032068;28;20036;-69
2023/07/23 06:50:21;;;;;;;8.45;3.42;;;22.10;91.90;;;;;;5024476;28;20118;-67
2023/07/23 06:52:47;;;;;;;4.30;3.00;;;22.00;91.70;;;;;;5025026;28;20041;-69
2023/07/23 06:55:12;;;;;;;5.20;3.28;;;21.80;91.60;;;;;;5029852;28;20033;-69
2023/07/23 06:57:39;;;;;;;5.07;2.97;;;22.20;93.00;;;;;;5030096;28;20052;-68
2023/07/23 07:00:07;;;;;;;8.52;3.78;;;22.70;90.70;;;;;;5025744;28;20064;-68
2023/07/23 07:02:33;;;;;;;4.80;2.78;;;23.90;85.80;;;;;;5029968;28;20032;-68
2023/07/23 07:04:59;;;;;;;3.70;2.83;;;24.10;84.40;;;;;;5028564;28;20033;-68
2023/07/23 07:07:24;;;;;;;3.80;2.27;;;24.00;84.90;;;;;;5019086;28;20033;-68
2023/07/23 07:09:52;;;;;;;3.93;3.20;;;23.80;85.30;;;;;;5021607;28;20490;-68
2023/07/23 07:12:17;;;;;;;4.78;2.92;;;23.60;87.60;;;;;;5024767;28;20501;-73
2023/07/23 07:14:43;;;;;;;4.87;3.37;;;23.90;87.20;;;;;;5030185;28;20025;-69
2023/07/23 07:17:08;;;;;;;5.47;3.63;;;25.30;83.40;;;;;;5028628;28;20309;-70
2023/07/23 07:19:34;;;;;;;7.00;3.13;;;25.40;82.40;;;;;;5027891;28;20069;-68
2023/07/23 07:21:59;;;;;;;3.67;2.90;;;24.50;83.40;;;;;;5023611;28;20030;-68
2023/07/23 07:24:25;;;;;;;4.00;2.70;;;24.40;83.60;;;;;;5026155;28;20417;-68
2023/07/23 07:26:50;;;;;;;3.73;2.70;;;24.60;83.70;;;;;;5026587;28;20049;-68
2023/07/23 07:29:16;;;;;;;5.90;3.40;;;24.00;86.00;;;;;;5027830;28;20034;-69
2023/07/23 07:31:42;;;;;;;5.93;3.60;;;23.70;86.50;;;;;;5029885;28;20284;-68
2023/07/23 07:34:07;;;;;;;6.00;3.20;;;23.70;87.70;;;;;;5034219;28;20025;-70
2023/07/23 07:36:33;;;;;;;7.87;3.10;;;23.50;87.80;;;;;;5021429;28;20041;-72
2023/07/23 07:38:58;;;;;;;6.47;3.20;;;23.60;88.40;;;;;;5030282;28;20029;-71
2023/07/23 07:41:24;;;;;;;5.60;3.20;;;23.60;89.30;;;;;;5032964;28;20207;-72
2023/07/23 07:43:49;;;;;;;6.10;3.20;;;23.80;87.90;;;;;;5030216;28;20033;-71
2023/07/23 07:46:15;;;;;;;6.10;3.23;;;24.00;86.20;;;;;;5026626;28;20476;-72
2023/07/23 07:48:42;;;;;;;4.93;3.63;;;25.10;84.40;;;;;;5028642;28;20029;-70
2023/07/23 07:51:08;;;;;;;4.93;3.03;;;25.90;82.90;;;;;;5029332;28;20025;-69
2023/07/23 07:53:34;;;;;;;5.80;3.28;;;24.90;83.70;;;;;;5025370;28;20033;-70
2023/07/23 07:56:01;;;;;;;7.03;3.67;;;24.70;85.90;;;;;;5020518;28;20561;-69
2023/07/23 07:58:27;;;;;;;6.55;3.22;;;24.60;85.70;;;;;;5027949;28;20280;-68
2023/07/23 08:00:54;;;;;;;;;;;24.60;85.60;;;;;;5026233;28;20029;-67
2023/07/23 08:03:24;;;;;;;4.78;3.45;;;24.70;84.60;;;;;;5029563;28;19966;-68
2023/07/23 08:05:51;;;;;;;3.78;3.17;;;24.80;84.00;;;;;;5026575;28;20615;-68
2023/07/23 08:08:22;;;;;;;8.70;3.10;;;25.30;82.70;;;;;;5028352;28;20021;-68
2023/07/23 08:10:48;;;;;;;5.63;3.45;;;25.80;82.60;;;;;;5029069;28;20033;-70
2023/07/23 08:13:15;;;;;;;4.90;3.40;;;26.30;82.20;;;;;;5029325;28;20562;-68
2023/07/23 08:15:41;;;;;;;7.15;3.10;;;26.30;81.40;;;;;;5025045;28;20033;-69
2023/07/23 08:18:06;;;;;;;6.47;3.67;;;26.30;81.20;;;;;;5031234;28;20025;-69
2023/07/23 08:20:34;;;;;;;7.32;3.05;;;27.00;80.40;;;;;;5029587;28;20029;-70
2023/07/23 08:23:01;;;;;;;7.35;3.58;;;26.70;80.30;;;;;;5022093;28;20088;-67
2023/07/23 08:25:30;;;;;;;5.28;3.15;;;26.80;79.60;;;;;;5034496;28;20112;-67
2023/07/23 08:28:00;;;;;;;7.63;3.35;;;26.70;79.60;;;;;;5025161;28;20644;-70
2023/07/23 08:30:30;;;;;;;5.15;3.20;;;27.10;80.30;;;;;;5027680;28;20048;-69
2023/07/23 08:33:00;;;;;;;5.85;3.60;;;28.20;77.30;;;;;;5030760;28;20719;-69
2023/07/23 08:35:27;;;;;;;9.40;3.90;;;29.20;73.80;;;;;;5029314;28;20026;-69
2023/07/23 08:37:55;;;;;;;19.70;6.97;;;28.30;76.30;;;;;;5028393;28;20852;-70
2023/07/23 08:40:23;;;;;;;12.13;3.72;;;27.90;76.40;;;;;;5028654;28;20060;-68
2023/07/23 08:42:51;;;;;;;19.90;4.95;;;27.40;79.80;;;;;;5030397;28;20039;-71
2023/07/23 08:45:38;;;;;;;11.90;5.05;;;27.40;77.60;;;;;;5025515;28;20049;-70
2023/07/23 08:48:14;;;;;;;7.75;4.82;;;29.20;74.50;;;;;;5029883;28;20039;-70
2023/07/23 08:50:42;;;;;;;5.85;4.22;;;30.40;71.40;;;;;;5029779;28;20547;-68
2023/07/23 08:53:11;;;;;;;6.38;3.92;;;29.90;70.40;;;;;;5025707;28;20022;-68
2023/07/23 08:55:39;;;;;;;49.30;12.88;;;29.50;70.70;;;;;;5030865;28;20033;-67
2023/07/23 08:58:05;;;;;;;26.50;6.63;;;29.60;73.30;;;;;;5059456;28;20025;-68
2023/07/23 09:00:31;;;;;;;23.33;6.10;;;29.50;69.90;;;;;;5025788;28;20053;-66
2023/07/23 09:03:02;;;;;;;7.10;3.88;;;29.50;72.00;;;;;;5031022;28;20378;-67
2023/07/23 09:05:32;;;;;;;7.65;4.13;;;29.50;72.10;;;;;;5029910;28;20159;-68
2023/07/23 09:07:58;;;;;;;6.97;4.30;;;29.50;73.80;;;;;;5026918;28;20072;-67
2023/07/23 09:10:24;;;;;;;6.78;4.63;;;29.50;74.20;;;;;;5026936;28;20041;-70
2023/07/23 09:12:49;;;;;;;6.07;4.55;;;30.70;70.20;;;;;;5027804;28;20037;-66
2023/07/23 09:15:15;;;;;;;8.52;5.28;;;33.30;66.20;;;;;;5027824;28;20111;-67
2023/07/23 09:17:41;;;;;;;9.98;4.82;;;35.70;61.90;;;;;;5031610;28;20075;-67
2023/07/23 09:20:10;;;;;;;10.82;4.70;;;37.40;63.40;;;;;;5025704;28;20091;-68
2023/07/23 09:22:36;;;;;;;10.43;4.82;;;37.90;51.40;;;;;;5023328;28;20036;-67
2023/07/23 09:25:01;;;;;;;;;;;37.50;49.10;;;;;;5026598;28;20405;-67
2023/07/23 09:27:37;;;;;;;7.80;5.35;;;38.70;48.90;;;;;;5022664;28;19913;-69
2023/07/23 09:30:03;;;;;;;6.88;4.43;;;36.60;50.50;;;;;;5025511;28;20032;-71
2023/07/23 09:32:30;;;;;;;8.52;5.38;;;38.70;48.50;;;;;;5020541;28;20492;-71
2023/07/23 09:34:57;;;;;;;7.15;4.72;;;37.50;51.10;;;;;;5023532;28;20033;-71
2023/07/23 09:37:26;;;;;;;29.90;8.20;;;36.70;49.50;;;;;;5025821;28;20116;-67
2023/07/23 09:39:55;;;;;;;8.75;4.95;;;35.60;52.40;;;;;;5028247;28;20126;-67
2023/07/23 09:42:22;;;;;;;9.05;5.88;;;34.60;55.00;;;;;;5024933;28;20025;-67
2023/07/23 09:44:48;;;;;;;9.10;6.40;;;32.90;57.80;;;;;;5034494;28;20112;-66
2023/07/23 09:47:14;;;;;;;8.80;6.35;;;34.50;54.10;;;;;;5033909;28;20068;-68
2023/07/23 09:49:41;;;;;;;;;;;33.70;55.00;;;;;;5026137;28;20064;-70
2023/07/23 09:52:07;;;;;;;220.17;37.33;;;31.90;59.00;;;;;;5026664;28;20227;-70
2023/07/23 09:54:34;;;;;;;69.95;15.75;;;34.60;59.50;;;;;;5026336;28;20780;-65
2023/07/23 09:57:02;;;;;;;49.42;15.23;;;36.60;53.10;;;;;;5025553;28;20034;-63
2023/07/23 09:59:29;;;;;;;51.08;15.55;;;39.10;50.40;;;;;;5026407;28;20046;-66
2023/07/23 10:01:56;;;;;;;38.17;13.45;;;40.00;49.20;;;;;;5024588;28;20457;-62
2023/07/23 10:04:23;;;;;;;30.50;12.77;;;36.50;46.80;;;;;;5028196;28;20095;-64
2023/07/23 10:06:49;;;;;;;25.60;13.18;;;34.20;50.00;;;;;;5027450;28;20465;-64
2023/07/23 10:09:19;;;;;;;17.13;10.70;;;33.40;52.30;;;;;;5022778;28;20040;-63
2023/07/23 10:11:45;;;;;;;19.52;10.88;;;32.60;52.30;;;;;;5029295;28;20033;-64
2023/07/23 10:14:11;;;;;;;;;;;32.90;58.80;;;;;;5025338;28;20029;-63
2023/07/23 10:16:38;;;;;;;20.40;12.88;;;37.30;51.30;;;;;;5029668;28;19909;-63
2023/07/23 10:19:05;;;;;;;17.83;11.57;;;38.70;45.90;;;;;;5026702;28;20493;-64
2023/07/23 10:21:33;;;;;;;18.83;12.07;;;40.20;45.10;;;;;;5019834;28;20191;-65
2023/07/23 10:24:00;;;;;;;19.58;12.80;;;41.10;44.40;;;;;;5015535;28;20139;-64
2023/07/23 10:26:27;;;;;;;20.92;12.75;;;40.10;43.50;;;;;;5027638;28;20082;-64
2023/07/23 10:29:11;;;;;;;18.95;13.75;;;41.20;45.30;;;;;;5025791;28;20022;-64
2023/07/23 10:31:42;;;;;;;21.25;12.50;;;39.20;42.00;;;;;;5024078;28;20112;-64
2023/07/23 10:34:23;;;;;;;19.02;13.60;;;38.50;43.80;;;;;;5029042;28;20027;-66
2023/07/23 10:37:13;;;;;;;19.00;12.85;;;36.10;46.50;;;;;;5031179;28;20036;-64
2023/07/23 10:39:40;;;;;;;20.02;13.18;;;33.80;49.70;;;;;;5025419;28;20121;-64
2023/07/23 10:42:06;;;;;;;17.23;11.50;;;33.40;51.10;;;;;;5028473;28;20034;-66
2023/07/23 10:44:32;;;;;;;;;;;33.00;53.40;;;;;;5026890;28;20088;-63
2023/07/23 10:46:59;;;;;;;19.85;13.15;;;32.10;53.60;;;;;;5022471;28;20376;-63
2023/07/23 10:49:29;;;;;;;20.02;13.98;;;31.80;53.40;;;;;;5032161;28;20021;-63
2023/07/23 10:52:17;;;;;;;23.10;13.75;;;31.50;53.70;;;;;;5026771;28;20111;-64
2023/07/23 10:54:44;;;;;;;26.33;15.32;;;31.90;53.70;;;;;;5022142;28;20459;-63
2023/07/23 10:57:23;;;;;;;22.20;14.90;;;31.70;53.50;;;;;;5023228;28;20028;-64
2023/07/23 10:59:53;;;;;;;28.45;16.40;;;31.60;52.20;;;;;;5022185;28;20044;-64
2023/07/23 11:02:25;;;;;;;26.23;16.58;;;31.90;52.40;;;;;;5020765;28;20037;-63
2023/07/23 11:04:50;;;;;;;24.25;15.98;;;31.90;52.40;;;;;;5022053;28;20126;-63
2023/07/23 11:07:27;;;;;;;24.10;15.73;;;31.70;51.60;;;;;;5030192;28;20076;-63
2023/07/23 11:09:55;;;;;;;26.38;15.88;;;31.80;52.50;;;;;;5022195;28;20029;-64
2023/07/23 11:12:22;;;;;;;23.45;15.15;;;31.40;51.70;;;;;;5026814;28;20014;-62
2023/07/23 11:14:48;;;;;;;25.08;16.13;;;31.20;52.50;;;;;;5026897;28;20026;-64
2023/07/23 11:17:14;;;;;;;23.80;15.63;;;31.40;52.30;;;;;;5027516;28;20433;-66
2023/07/23 11:19:44;;;;;;;22.92;15.25;;;31.50;51.00;;;;;;5028027;28;20034;-64
2023/07/23 11:22:12;;;;;;;23.35;15.95;;;31.40;50.40;;;;;;5026771;28;20033;-62
2023/07/23 11:24:40;;;;;;;24.17;15.60;;;31.30;50.60;;;;;;5026159;28;20489;-62
2023/07/23 11:27:05;;;;;;;25.92;15.35;;;31.20;51.30;;;;;;5026123;28;20075;-63
2023/07/23 11:29:31;;;;;;;27.67;16.23;;;31.10;51.60;;;;;;5030194;28;20037;-63
2023/07/23 11:31:57;;;;;;;26.30;15.85;;;31.20;53.00;;;;;;5029773;28;20029;-63
2023/07/23 11:34:24;;;;;;;31.58;17.13;;;31.40;51.60;;;;;;5023741;28;20033;-63
2023/07/23 11:36:55;;;;;;;27.92;17.52;;;31.30;49.60;;;;;;5025515;28;20042;-65
2023/07/23 11:39:24;;;;;;;25.85;16.73;;;31.30;51.20;;;;;;5029899;28;20778;-63
2023/07/23 11:41:51;;;;;;;25.25;15.98;;;31.50;50.50;;;;;;5032660;28;20481;-65
2023/07/23 11:44:17;;;;;;;26.02;17.48;;;31.70;51.20;;;;;;5031050;28;20111;-63
2023/07/23 11:46:43;;;;;;;25.77;16.08;;;31.50;49.00;;;;;;5027443;28;20068;-62
2023/07/23 11:49:11;;;;;;;25.42;17.45;;;31.50;50.60;;;;;;5031935;28;20040;-62
2023/07/23 11:51:38;;;;;;;25.88;17.42;;;31.70;50.50;;;;;;5055752;28;20563;-64
2023/07/23 11:54:09;;;;;;;24.70;16.15;;;31.70;50.40;;;;;;5027634;28;20507;-63
2023/07/23 11:56:37;;;;;;;30.77;16.50;;;31.90;48.70;;;;;;5030695;28;20036;-63
2023/07/23 11:59:05;;;;;;;23.08;16.23;;;32.00;50.80;;;;;;5025649;28;20025;-62
2023/07/23 12:01:32;;;;;;;25.80;16.75;;;31.90;49.30;;;;;;5031761;28;20924;-64
2023/07/23 12:04:02;;;;;;;28.92;16.33;;;31.60;50.00;;;;;;5024807;28;20508;-63
2023/07/23 12:06:31;;;;;;;27.27;16.80;;;31.60;50.70;;;;;;5031088;28;20100;-64
2023/07/23 12:08:57;;;;;;;28.52;17.40;;;31.80;51.40;;;;;;5027039;28;20029;-62
2023/07/23 12:11:23;;;;;;;;;;;31.70;50.60;;;;;;5030686;28;20036;-63
2023/07/23 12:13:54;;;;;;;25.27;15.52;;;31.60;51.40;;;;;;5026312;28;19948;-62
2023/07/23 12:16:34;;;;;;;29.38;16.48;;;31.70;49.60;;;;;;5022216;28;20041;-64
2023/07/23 12:19:12;;;;;;;28.77;16.20;;;31.70;51.00;;;;;;5028149;28;20033;-62
2023/07/23 12:21:40;;;;;;;24.73;16.00;;;31.80;51.80;;;;;;5026191;28;20037;-63
2023/07/23 12:24:20;;;;;;;25.67;16.48;;;31.70;51.10;;;;;;5025642;28;20400;-63
2023/07/23 12:26:51;;;;;;;24.48;16.08;;;31.90;52.50;;;;;;5032035;28;20435;-63
2023/07/23 12:29:19;;;;;;;23.23;14.77;;;31.90;51.90;;;;;;5024875;28;20029;-63
2023/07/23 12:32:06;;;;;;;24.15;15.90;;;31.80;52.00;;;;;;5022767;28;20026;-64
2023/07/23 12:34:31;;;;;;;25.17;15.47;;;31.90;52.70;;;;;;5032732;28;20036;-66
2023/07/23 12:36:57;;;;;;;23.10;14.27;;;31.90;53.40;;;;;;5031715;28;20622;-64
2023/07/23 12:39:22;;;;;;;23.17;15.18;;;31.80;54.10;;;;;;5026344;28;20049;-65
2023/07/23 12:41:48;;;;;;;22.67;14.82;;;31.70;52.50;;;;;;5023517;28;20029;-64
2023/07/23 12:44:13;;;;;;;21.20;14.75;;;31.80;51.50;;;;;;5033074;28;20076;-65